Flight Track Log - Related Links

Times and Time Zones

All times are in EDT time to prevent confusion due to time zone crossing. See the N71ST flight status page for this flight to view local times or setup timezone preferences in your user account.

Time Position Orientation Groundspeed Altitude Reporting Facility
EDT Latitude Longitude Course Direction KTS MPH feet Rate Location/Type
Sat 03:41:15 PM 42.4667 -71.3000 270° West 85 98 900  Level KA90
Sat 03:42:04 PM 42.4667 -71.3167 270° West 83 96 1,600 716 Climbing KA90
Sat 03:43:04 PM 42.4500 -71.3500 236° Southwest 94 108 2,200 750 Climbing KA90
Sat 03:44:04 PM 42.4333 -71.3833 236° Southwest 98 113 3,100 900 Climbing KA90
Sat 03:45:04 PM 42.4167 -71.4167 236° Southwest 97 112 4,000 850 Climbing KA90
Sat 03:46:04 PM 42.3833 -71.4333 200° South 101 116 4,800 750 Climbing KA90
Sat 03:47:04 PM 42.3667 -71.4667 236° Southwest 104 120 5,500 569 Climbing KA90
Sat 03:48:00 PM 42.3442 -71.4850 211° Southwest 100 115 5,900 324 Climbing Boston Center
Sat 03:48:55 PM 42.3175 -71.5108 216° Southwest 118 136 6,100 52 Climbing Boston Center
Sat 03:49:56 PM 42.2883 -71.5364 213° Southwest 121 139 6,000 49 Descending Boston Center
Sat 03:50:57 PM 42.2594 -71.5678 219° Southwest 127 146 6,200 103 Climbing Boston Center
Sat 03:51:52 PM 42.2347 -71.5906 214° Southwest 133 153 6,200 -52 Level Boston Center
Sat 03:52:53 PM 42.2017 -71.6217 215° Southwest 136 157 6,100 -98 Descending Boston Center
Sat 03:53:54 PM 42.1831 -71.6639 239° Southwest 143 165 6,000  Descending Boston Center
Sat 03:54:45 PM 42.1728 -71.7033 251° West 136 157 6,100  Climbing Boston Center
Sat 03:55:22 PM 42.1669 -71.7342 256° West 134 154 6,000 -62 Descending Boston Center
Sat 03:56:22 PM 42.1547 -71.7819 251° West 134 154 6,000  Level Boston Center
Sat 03:57:17 PM 42.1467 -71.8242 256° West 131 151 6,000  Level Boston Center
Sat 03:58:18 PM 42.1383 -71.8744 257° West 133 153 6,000  Level Boston Center
Sat 03:59:19 PM 42.1283 -71.9194 253° West 131 151 6,000 49 Level Boston Center
Sat 04:00:20 PM 42.0908 -71.9308 193° South 131 151 6,100 49 Climbing Boston Center
Sat 04:01:21 PM 42.0533 -71.9339 183° South 135 155 6,100  Level Boston Center
Sat 04:02:28 PM 42.0117 -71.9344 181° South 135 155 6,100 -50 Level Boston Center
Sat 04:03:22 PM 41.9783 -71.9375 184° South 136 157 6,000 -52 Descending Boston Center
Sat 04:04:23 PM 41.9408 -71.9378 180° South 134 154 6,000 -49 Level Boston Center
Sat 04:05:24 PM 41.9011 -71.9242 166° South 142 163 5,900 49 Descending Boston Center
Sat 04:06:25 PM 41.8658 -71.9300 187° South 135 155 6,100 49 Climbing Boston Center
Sat 04:07:26 PM 41.8261 -71.9358 186° South 139 160 6,000  Descending Boston Center
Sat 04:08:27 PM 41.7867 -71.9444 189° South 143 165 6,100  Climbing Boston Center
Sat 04:09:28 PM 41.7469 -71.9503 186° South 140 161 6,000 -50 Descending Boston Center
Sat 04:10:28 PM 41.7075 -71.9536 184° South 142 163 6,000  Level Boston Center
Sat 04:11:23 PM 41.6719 -71.9619 190° South 143 165 6,000 49 Level Boston Center
Sat 04:12:30 PM 41.6283 -71.9708 189° South 145 167 6,100  Climbing Boston Center
Sat 04:13:25 PM 41.5908 -71.9767 187° South 144 166 6,000  Descending Boston Center
Sat 04:14:25 PM 41.5533 -71.9906 195° South 145 167 6,100 50 Climbing Boston Center
Sat 04:15:26 PM 41.5222 -72.0214 217° Southwest 141 162 6,100 -49 Level Boston Center
Sat 04:16:27 PM 41.4953 -72.0603 227° Southwest 141 162 6,000 -49 Descending Boston Center
Sat 04:17:28 PM 41.4683 -72.0994 227° Southwest 141 162 6,000 45 Level Boston Center
Sat 04:18:41 PM 41.4350 -72.1439 225° Southwest 143 165 6,100 45 Climbing Boston Center
Sat 04:19:41 PM 41.4061 -72.1856 227° Southwest 143 165 6,100  Level Boston Center
Sat 04:20:48 PM 41.3706 -72.2217 217° Southwest 145 167 6,100 1,500 Level Boston Center
Sat 04:23:17 PM 41.3000 -72.3000 220° Southwest 145 167 11,500  Climbing New York TRACON
Sat 04:24:17 PM 41.2667 -72.3333 217° Southwest 144 166 6,100 -2,700 Descending New York TRACON
Sat 04:25:17 PM 41.2333 -72.3667 217° Southwest 148 170 6,100  Level New York TRACON
Sat 04:26:17 PM 41.2000 -72.4000 217° Southwest 145 167 6,100  Level New York TRACON
Sat 04:27:17 PM 41.1833 -72.4500 246° West 146 168 6,100  Level New York TRACON
Sat 04:28:11 PM 41.1500 -72.4833 217° Southwest 142 163 6,100  Level New York TRACON
Sat 04:29:11 PM 41.1333 -72.5167 236° Southwest 147 169 6,100  Level New York TRACON
Sat 04:30:17 PM 41.1000 -72.5667 229° Southwest 140 161 6,100  Level New York TRACON
Sat 04:31:12 PM 41.0667 -72.6000 217° Southwest 144 166 6,100  Level New York TRACON
Sat 04:32:17 PM 41.0500 -72.6333 236° Southwest 141 162 6,100 -50 Level New York TRACON
Sat 04:33:12 PM 41.0167 -72.6667 217° Southwest 144 166 6,000 -52 Descending New York TRACON
Sat 04:34:12 PM 41.0000 -72.7167 246° West 141 162 6,000 -50 Level New York TRACON
Sat 04:35:11 PM 40.9667 -72.7500 217° Southwest 142 163 5,900  Descending New York TRACON
Sat 04:36:11 PM 40.9333 -72.7833 217° Southwest 140 161 6,000 100 Climbing New York TRACON
Sat 04:37:11 PM 40.9167 -72.8167 237° Southwest 137 158 6,100 50 Climbing New York TRACON
Sat 04:38:11 PM 40.9167 -72.8667 270° West 132 152 6,100 -50 Level New York TRACON
Sat 04:39:11 PM 40.9000 -72.9167 246° West 136 157 6,000  Descending New York TRACON
Sat 04:40:11 PM 40.9000 -72.9500 270° West 121 139 6,100 50 Climbing New York TRACON
Sat 04:41:11 PM 40.8833 -73.0000 246° West 141 162 6,100 -50 Level New York TRACON
Sat 04:42:12 PM 40.8833 -73.0500 270° West 132 152 6,000  Descending New York TRACON
Sat 04:43:12 PM 40.8833 -73.0833 270° West 128 147 6,100 50 Climbing New York TRACON
Sat 04:44:12 PM 40.8833 -73.1333 270° West 132 152 6,100 -100 Level New York TRACON
Sat 04:45:12 PM 40.8833 -73.1833 270° West 128 147 5,900 -50 Descending New York TRACON
Sat 04:46:12 PM 40.8833 -73.2333 270° West 124 143 6,000 150 Climbing New York TRACON
Sat 04:47:12 PM 40.8667 -73.2833 246° West 131 151 6,200  Climbing New York TRACON
Sat 04:48:12 PM 40.8667 -73.3333 270° West 139 160 6,000 -100 Descending New York TRACON
Sat 04:49:12 PM 40.8667 -73.3667 270° West 129 148 6,000  Level New York TRACON
Sat 04:50:12 PM 40.8500 -73.4167 246° West 132 152 6,000 50 Level New York TRACON
Sat 04:51:12 PM 40.8500 -73.4667 270° West 132 152 6,100  Climbing New York TRACON
Sat 04:52:12 PM 40.8500 -73.5167 270° West 137 158 6,000 -50 Descending New York TRACON
Sat 04:53:12 PM 40.8333 -73.5667 246° West 143 165 6,000 50 Level New York TRACON
Sat 04:54:12 PM 40.8000 -73.5833 201° Southwest 140 161 6,100  Climbing New York TRACON
Sat 04:55:06 PM 40.7667 -73.6167 217° Southwest 145 167 6,000 50 Descending New York TRACON
Sat 04:56:12 PM 40.7333 -73.6667 229° Southwest 142 163 6,200 48 Climbing New York TRACON
Sat 04:57:12 PM 40.7000 -73.7000 217° Southwest 137 158 6,100 -50 Descending New York TRACON
Sat 04:58:12 PM 40.6667 -73.7167 201° Southwest 139 160 6,100  Level New York TRACON
Sat 04:59:12 PM 40.6500 -73.7500 237° Southwest 125 144 6,100  Level New York TRACON
Sat 05:00:12 PM 40.6167 -73.7833 217° Southwest 123 142 6,100  Level New York TRACON
Sat 05:01:12 PM 40.5667 -73.8167 207° Southwest 142 163 6,100 50 Level New York TRACON
Sat 05:02:12 PM 40.5333 -73.8333 201° Southwest 143 165 6,200 -50 Climbing New York TRACON
Sat 05:03:12 PM 40.5000 -73.8667 217° Southwest 149 171 6,000 -50 Descending New York TRACON
Sat 05:04:12 PM 40.4667 -73.8833 201° Southwest 145 167 6,100  Climbing New York TRACON
Sat 05:05:12 PM 40.4333 -73.9167 217° Southwest 143 165 6,000  Descending New York TRACON
Sat 05:07:00 PM 40.3706 -73.9554 205° Southwest  Level FlightAware Approximate
Sat 05:14:00 PM 40.1375 -74.1230 201° Southwest  Level FlightAware Approximate
Sat 05:15:00 PM 40.1015 -74.1409 201° Southwest  Level FlightAware Approximate
Sat 05:16:00 PM 40.0693 -74.1669 223° Southwest  Level FlightAware Approximate
Sat 05:17:00 PM 40.0409 -74.2009 223° Southwest  Level FlightAware Approximate
Sat 05:18:00 PM 40.0126 -74.2350 223° Southwest  Level FlightAware Approximate
Sat 05:19:00 PM 39.9824 -74.2660 215° Southwest  Level FlightAware Approximate
Sat 05:20:00 PM 39.9508 -74.2948 215° Southwest  Level FlightAware Approximate
Sat 05:21:00 PM 39.9193 -74.3235 215° Southwest  Level FlightAware Approximate
Sat 05:22:00 PM 39.8877 -74.3523 215° Southwest  Level FlightAware Approximate
Sat 05:23:00 PM 39.8561 -74.3810 215° Southwest  Level FlightAware Approximate
Sat 05:24:00 PM 39.8245 -74.4096 215° Southwest  Level FlightAware Approximate
Sat 05:25:00 PM 39.7927 -74.4380 214° Southwest  Level FlightAware Approximate
Sat 05:26:00 PM 39.7609 -74.4663 214° Southwest  Level FlightAware Approximate
Sat 05:27:00 PM 39.7291 -74.4946 214° Southwest  Level FlightAware Approximate
Sat 05:28:00 PM 39.6973 -74.5228 214° Southwest  Level FlightAware Approximate
Sat 05:29:00 PM 39.6656 -74.5511 218° Southwest  Level FlightAware Approximate
Sat 05:30:00 PM 39.6351 -74.5816 218° Southwest  Level FlightAware Approximate
Sat 05:31:00 PM 39.6045 -74.6121 218° Southwest  Level FlightAware Approximate
Sat 05:32:00 PM 39.5740 -74.6426 218° Southwest  Level FlightAware Approximate
Sat 05:33:00 PM 39.5435 -74.6731 218° Southwest  Level FlightAware Approximate
Sat 05:34:00 PM 39.5131 -74.7036 218° Southwest  Level FlightAware Approximate
Sat 05:35:00 PM 39.4822 -74.7334 216° Southwest  Level FlightAware Approximate
Sat 05:36:00 PM 39.4509 -74.7626 216° Southwest  Level FlightAware Approximate
Sat 05:37:00 PM 39.4197 -74.7918 216° Southwest  Level FlightAware Approximate
Sat 05:38:00 PM 39.3885 -74.8210 216° Southwest  Level FlightAware Approximate
Sat 05:39:00 PM 39.3573 -74.8502 216° Southwest  Level FlightAware Approximate
Sat 05:40:00 PM 39.3260 -74.8793 216° Southwest  Level FlightAware Approximate
Sat 05:41:00 PM 39.2948 -74.9084 216° Southwest  Level FlightAware Approximate
Sat 05:42:00 PM 39.2635 -74.9374 216° Southwest  Level FlightAware Approximate
Sat 05:43:00 PM 39.2298 -74.9609 203° Southwest  Level FlightAware Approximate
Sat 05:44:00 PM 39.1943 -74.9801 203° Southwest  Level FlightAware Approximate
Sat 05:45:00 PM 39.1588 -74.9992 203° Southwest  Level FlightAware Approximate
Sat 05:46:00 PM 39.1232 -75.0183 203° Southwest  Level FlightAware Approximate
Sat 05:47:00 PM 39.0877 -75.0375 203° Southwest  Level FlightAware Approximate
Sat 05:48:00 PM 39.0522 -75.0566 203° Southwest  Level FlightAware Approximate
Sat 05:49:00 PM 39.0190 -75.0810 218° Southwest  Level FlightAware Approximate
Sat 05:50:00 PM 38.9839 -75.1010 203° Southwest  Level FlightAware Approximate
Sat 05:51:00 PM 38.9484 -75.1202 203° Southwest  Level FlightAware Approximate
Sat 05:52:00 PM 38.9129 -75.1393 203° Southwest  Level FlightAware Approximate
Sat 05:53:00 PM 38.8774 -75.1584 203° Southwest  Level FlightAware Approximate
Sat 05:54:00 PM 38.8418 -75.1775 203° Southwest  Level FlightAware Approximate
Sat 05:55:00 PM 38.8063 -75.1966 203° Southwest  Level FlightAware Approximate
Sat 05:56:00 PM 38.7717 -75.2182 207° Southwest  Level FlightAware Approximate
Sat 05:57:00 PM 38.7373 -75.2404 207° Southwest  Level FlightAware Approximate
Sat 05:58:00 PM 38.7029 -75.2626 207° Southwest  Level FlightAware Approximate
Sat 05:59:00 PM 38.6684 -75.2847 207° Southwest  Level FlightAware Approximate
Sat 05:59:17 PM 38.6378 -75.3181 207° Southwest 141 162 6,100  Level Washington Center
Sat 06:00:00 PM 38.6340 -75.3068 207° Southwest  Level FlightAware Approximate
Sat 06:00:14 PM 38.6025 -75.3392 205° Southwest 141 162 6,000  Level Washington Center
Sat 06:01:00 PM 38.5996 -75.3289 207° Southwest  Level FlightAware Approximate
Sat 06:01:15 PM 38.5669 -75.3606 205° Southwest 146 168 6,100  Level Washington Center
Sat 06:02:00 PM 38.5652 -75.3510 207° Southwest  Level FlightAware Approximate
Sat 06:02:16 PM 38.5294 -75.3819 204° Southwest 146 168 6,200  Level Washington Center
Sat 06:03:00 PM 38.5308 -75.3731 207° Southwest  Level FlightAware Approximate
Sat 06:03:16 PM 38.4942 -75.4033 205° Southwest 151 174 6,000  Level Washington Center
Sat 06:04:00 PM 38.4964 -75.3953 207° Southwest  Level FlightAware Approximate
Sat 06:04:17 PM 38.4586 -75.4247 205° Southwest 151 174 6,100  Level Washington Center
Sat 06:06:17 PM 38.3858 -75.4619 202° Southwest 151 174 6,000 -67 Descending Washington Center
Sat 06:07:17 PM 38.3525 -75.4939 217° Southwest 151 174 5,900 -51 Descending Washington Center
Sat 06:08:15 PM 38.3211 -75.5150 208° Southwest 145 167 5,900 51 Level Washington Center
Sat 06:09:15 PM 38.2794 -75.5442 209° Southwest 145 167 6,000 50 Climbing Washington Center
Sat 06:10:16 PM 38.2461 -75.5653 206° Southwest 145 167 6,000  Level Washington Center
Sat 06:11:16 PM 38.2189 -75.5839 208° Southwest 145 167 6,000  Level Washington Center
Sat 06:12:17 PM 38.1794 -75.6128 210° Southwest 132 152 6,000  Level Washington Center
Sat 06:13:14 PM 38.1419 -75.6367 207° Southwest 143 165 6,000 51 Level Washington Center
Sat 06:14:15 PM 38.1106 -75.6631 213° Southwest 149 171 6,100 50 Climbing Washington Center
Sat 06:15:15 PM 38.0731 -75.6842 204° Southwest 149 171 6,100 -50 Level Washington Center
Sat 06:16:16 PM 38.0356 -75.7050 204° Southwest 149 171 6,000 -49 Descending Washington Center
Sat 06:17:17 PM 38.0000 -75.7289 208° Southwest 149 171 6,000 50 Level Washington Center
Sat 06:18:15 PM 37.9625 -75.7497 204° Southwest 149 171 6,100  Climbing Washington Center
Sat 06:19:15 PM 37.9247 -75.7656 198° South 149 171 6,000  Descending Washington Center
Sat 06:20:15 PM 37.8853 -75.7892 205° Southwest 149 171 6,100  Climbing Washington Center
Sat 06:21:16 PM 37.8497 -75.8047 199° South 154 177 6,000  Descending Washington Center
Sat 06:22:17 PM 37.8122 -75.8231 201° Southwest 154 177 6,100 50 Climbing Washington Center
Sat 06:23:17 PM 37.7786 -75.8467 209° Southwest 154 177 6,100 -62 Level Washington Center
Sat 06:23:54 PM 37.7517 -75.8622 205° Southwest 144 166 6,000 -103 Descending Washington Center
Sat 06:24:15 PM 37.7411 -75.8650 192° South 149 171 6,000  Level Washington Center
Sat 06:24:48 PM 37.7181 -75.8831 212° Southwest 146 168 6,000  Level Washington Center
Sat 06:25:16 PM 37.7056 -75.8883 198° South 149 171 6,000  Level Washington Center
Sat 06:25:49 PM 37.6828 -75.9067 212° Southwest 146 168 6,000  Level Washington Center
Sat 06:26:16 PM 37.6681 -75.9197 215° Southwest 149 171 6,000  Level Washington Center
Sat 06:26:50 PM 37.6450 -75.9328 204° Southwest 148 170 6,000 98 Level Washington Center
Sat 06:27:17 PM 37.6344 -75.9406 210° Southwest 149 171 6,100 111 Climbing Washington Center
Sat 06:27:44 PM 37.6136 -75.9536 206° Southwest 142 163 6,100  Level Washington Center
Sat 06:28:17 PM 37.6011 -75.9614 206° Southwest 144 166 6,100  Level Washington Center
Sat 06:28:56 PM 37.5656 -75.9639 183° South 151 174 6,100  Level Washington Center
Sat 06:29:15 PM 37.5594 -75.9639 180° South 144 166 6,100  Level Washington Center
Sat 06:29:57 PM 37.5261 -75.9742 194° South 148 170 6,100  Level Washington Center
Sat 06:30:16 PM 37.5197 -75.9742 180° South 144 166 6,100  Level Washington Center
Sat 06:30:46 PM 37.4967 -75.9897 208° Southwest 152 175 6,100  Level Washington Center
Sat 06:31:16 PM 37.4842 -75.9975 206° Southwest 144 166 6,100  Level Washington Center
Sat 06:31:53 PM 37.4611 -76.0183 216° Southwest 138 159 6,100 -102 Level Washington Center
Sat 06:32:15 PM 37.4528 -76.0208 193° South 144 166 6,000 -98 Descending Washington Center
Sat 06:32:54 PM 37.4278 -76.0442 217° Southwest 140 161 6,000  Level Washington Center
Sat 06:33:15 PM 37.4194 -76.0494 207° Southwest 144 166 6,000  Level Washington Center
Sat 06:33:55 PM 37.3922 -76.0675 208° Southwest 139 160 6,000  Level Washington Center
Sat 06:34:55 PM 37.3586 -76.0936 212° Southwest 139 160 6,000 -50 Level Washington Center
Sat 06:35:56 PM 37.3272 -76.1194 213° Southwest 138 159 5,900 -50 Descending Washington Center
Sat 06:36:55 PM 37.2939 -76.1453 212° Southwest 139 160 5,900  Level Washington Center
Sat 06:37:55 PM 37.2583 -76.1739 213° Southwest 141 162 5,900 47 Level Washington Center
Sat 06:39:04 PM 37.2247 -76.2047 216° Southwest 141 162 6,000 47 Climbing Washington Center
Sat 06:40:04 PM 37.1953 -76.2306 215° Southwest 137 158 6,000  Level Washington Center
Sat 06:41:00 PM 37.1681 -76.2539 214° Southwest 137 158 6,000  Level Washington Center
Sat 06:42:00 PM 37.1325 -76.2822 212° Southwest 142 163 6,000  Level Washington Center
Sat 06:43:07 PM 37.0969 -76.3106 212° Southwest 137 158 6,000 -302 Level Washington Center
Sat 06:44:19 PM 37.0569 -76.3442 214° Southwest 143 165 5,300 -567 Descending Washington Center
Sat 06:45:14 PM 37.0256 -76.3644 207° Southwest 142 163 4,800 -672 Descending Washington Center
Sat 06:46:15 PM 36.9919 -76.3953 216° Southwest 144 166 4,000 -689 Descending Washington Center
Sat 06:47:16 PM 36.9606 -76.4211 213° Southwest 138 159 3,400 -472 Descending Washington Center
Sat 06:48:22 PM 36.9269 -76.4544 218° Southwest 138 159 3,000 -189 Descending Washington Center
Sat 06:49:23 PM 36.8956 -76.4828 216° Southwest 132 152 3,000 -50 Level Washington Center
Sat 06:50:21 PM 36.8639 -76.5058 210° Southwest 128 147 2,900 -303 Descending Washington Center
Sat 06:51:22 PM 36.8306 -76.5261 206° Southwest 138 159 2,400 -246 Descending Washington Center
Sat 06:52:23 PM 36.7969 -76.5517 211° Southwest 132 152 2,400 -58 Level Washington Center
Sat 06:53:05 PM 36.7758 -76.5644 206° Southwest 130 150 2,300 -143 Descending Washington Center
Sat 06:55:00 PM 36.7046 -76.5876 195° South  Level FlightAware Approximate
Sat 07:02:00 PM 36.6820 -76.6011 209° Southwest  Level Estimated
Sat 07:03:00 PM 36.6820 -76.6011 209° Southwest  Level Estimated
Sat 07:04:00 PM 36.6820 -76.6011 209° Southwest  Level Estimated

Login

Don't have an account? Register now (free) for customized features, flight alerts, and more!